createdAt,value
2022-11-06T00:01:13.736Z,12.71
2022-11-06T00:03:41.555Z,12.70
2022-11-06T00:06:33.736Z,11.93
2022-11-06T00:09:05.493Z,11.01
2022-11-06T00:11:32.361Z,10.39
2022-11-06T00:14:01.433Z,10.12
2022-11-06T00:16:28.677Z,10.67
2022-11-06T00:18:55.736Z,11.21
2022-11-06T00:21:26.310Z,11.54
2022-11-06T00:23:55.354Z,11.77
2022-11-06T00:26:24.909Z,11.92
2022-11-06T00:28:52.827Z,12.04
2022-11-06T00:31:29.091Z,12.16
2022-11-06T00:33:57.631Z,12.25
2022-11-06T00:36:26.412Z,12.22
2022-11-06T00:38:54.986Z,11.60
2022-11-06T00:41:22.911Z,10.89
2022-11-06T00:43:55.386Z,10.30
2022-11-06T00:46:22.329Z,9.94
2022-11-06T00:48:49.584Z,10.35
2022-11-06T00:51:20.328Z,10.82
2022-11-06T00:53:47.861Z,11.17
2022-11-06T00:56:17.994Z,11.48
2022-11-06T00:58:46.224Z,11.73
2022-11-06T01:01:19.119Z,11.90
2022-11-06T01:03:51.219Z,12.06
2022-11-06T01:06:20.824Z,12.19
2022-11-06T01:08:49.101Z,12.24
2022-11-06T01:11:19.526Z,12.16
2022-11-06T01:13:49.546Z,11.53
2022-11-06T01:16:17.411Z,10.78
2022-11-06T01:18:45.125Z,10.17
2022-11-06T01:21:22.514Z,9.84
2022-11-06T01:24:14.834Z,10.24
2022-11-06T01:26:58.534Z,10.79
2022-11-06T01:29:29.380Z,11.07
2022-11-06T01:31:56.251Z,11.25
2022-11-06T01:34:23.473Z,11.41
2022-11-06T01:36:51.484Z,11.57
2022-11-06T01:39:19.201Z,11.66
2022-11-06T01:41:49.348Z,11.73
2022-11-06T01:44:34.799Z,11.82
2022-11-06T01:47:04.266Z,11.91
2022-11-06T01:49:37.402Z,11.90
2022-11-06T01:52:08.479Z,11.20
2022-11-06T01:54:39.318Z,10.47
2022-11-06T01:57:07.273Z,9.87
2022-11-06T01:59:39.533Z,9.55
2022-11-06T02:02:06.965Z,10.00
2022-11-06T02:04:40.904Z,10.48
2022-11-06T02:07:09.148Z,10.92
2022-11-06T02:09:36.401Z,11.34
2022-11-06T02:12:25.874Z,11.65
2022-11-06T02:15:23.634Z,11.87
2022-11-06T02:18:03.392Z,11.98
2022-11-06T02:20:35.040Z,11.87
2022-11-06T02:23:30.144Z,11.14
2022-11-06T02:26:23.690Z,10.28
2022-11-06T02:28:59.976Z,9.62
2022-11-06T02:31:33.987Z,9.28
2022-11-06T02:34:07.754Z,9.73
2022-11-06T02:36:39.815Z,10.24
2022-11-06T02:39:12.401Z,10.59
2022-11-06T02:41:44.155Z,10.83
2022-11-06T02:44:17.075Z,11.04
2022-11-06T02:46:50.807Z,11.22
2022-11-06T02:49:36.283Z,11.39
2022-11-06T02:52:31.960Z,11.54
2022-11-06T02:55:09.296Z,11.65
2022-11-06T02:57:41.601Z,11.73
2022-11-06T03:00:14.697Z,11.78
2022-11-06T03:02:57.608Z,11.77
2022-11-06T03:05:28.919Z,11.77
2022-11-06T03:08:25.528Z,11.80
2022-11-06T03:11:04.252Z,11.77
2022-11-06T03:13:54.280Z,11.79
2022-11-06T03:16:44.938Z,11.85
2022-11-06T03:19:27.424Z,11.77
2022-11-06T03:22:00.124Z,11.03
2022-11-06T03:24:34.187Z,10.24
2022-11-06T03:27:09.489Z,9.59
2022-11-06T03:29:45.280Z,9.23
2022-11-06T03:32:18.419Z,9.53
2022-11-06T03:34:54.108Z,9.98
2022-11-06T03:37:30.147Z,10.27
2022-11-06T03:40:01.930Z,10.48
2022-11-06T03:42:32.002Z,10.63
2022-11-06T03:45:09.289Z,10.76
2022-11-06T03:48:00.195Z,10.90
2022-11-06T03:50:33.844Z,11.11
2022-11-06T03:53:44.989Z,11.25
2022-11-06T03:56:18.170Z,11.33
2022-11-06T03:58:47.966Z,11.42
2022-11-06T04:01:21.615Z,11.44
2022-11-06T04:03:55.093Z,11.41
2022-11-06T04:06:29.397Z,11.21
2022-11-06T04:09:19.384Z,10.44
2022-11-06T04:12:07.218Z,9.54
2022-11-06T04:14:38.262Z,9.10
2022-11-06T04:17:09.742Z,9.47
2022-11-06T04:19:36.655Z,9.90
2022-11-06T04:22:24.704Z,10.24
2022-11-06T04:25:38.536Z,10.52
2022-11-06T04:28:32.206Z,10.76
2022-11-06T04:31:08.778Z,10.83
2022-11-06T04:33:53.848Z,10.98
2022-11-06T04:36:26.616Z,11.07
2022-11-06T04:39:15.700Z,11.15
2022-11-06T04:42:08.888Z,11.25
2022-11-06T04:44:40.589Z,11.12
2022-11-06T04:47:12.182Z,10.34
2022-11-06T04:49:42.076Z,9.52
2022-11-06T04:52:19.466Z,9.01
2022-11-06T04:54:46.686Z,9.23
2022-11-06T04:57:13.764Z,9.61
2022-11-06T04:59:40.913Z,9.98
2022-11-06T05:02:08.004Z,10.74
2022-11-06T05:04:35.351Z,11.56
2022-11-06T05:07:02.466Z,12.12
2022-11-06T22:07:22.585Z,11.82
2022-11-06T22:09:52.089Z,12.74
2022-11-06T22:12:20.215Z,12.18
2022-11-06T22:14:48.873Z,11.33
2022-11-06T22:17:17.530Z,10.67
2022-11-06T22:19:48.124Z,10.14
2022-11-06T22:22:17.480Z,9.76
2022-11-06T22:24:48.240Z,9.43
2022-11-06T22:27:17.085Z,9.51
2022-11-06T22:29:46.499Z,10.97
2022-11-06T22:32:15.368Z,12.22
2022-11-06T22:34:43.555Z,12.75
2022-11-06T22:37:12.545Z,12.06
2022-11-06T22:39:41.235Z,11.20
2022-11-06T22:42:09.694Z,10.52
2022-11-06T22:44:38.303Z,9.96
2022-11-06T22:47:06.912Z,9.49
2022-11-06T22:49:35.318Z,9.13
2022-11-06T22:52:03.867Z,9.19
2022-11-06T22:54:32.421Z,10.64
2022-11-06T22:57:01.004Z,11.68
2022-11-06T22:59:29.690Z,11.24
2022-11-06T23:01:58.128Z,10.45
2022-11-06T23:04:26.550Z,9.82
2022-11-06T23:06:55.440Z,9.34
2022-11-06T23:09:24.080Z,9.35
2022-11-06T23:11:52.708Z,10.74
2022-11-06T23:14:21.422Z,12.02
2022-11-06T23:17:01.131Z,12.56
2022-11-06T23:19:31.987Z,11.78
2022-11-06T23:22:19.238Z,10.84
2022-11-06T23:24:47.982Z,10.06
2022-11-06T23:27:16.671Z,9.55
2022-11-06T23:29:44.959Z,9.14
2022-11-06T23:32:13.735Z,9.19
2022-11-06T23:34:42.026Z,10.63
2022-11-06T23:37:10.292Z,11.83
2022-11-06T23:39:39.479Z,11.57
2022-11-06T23:42:07.858Z,10.70
2022-11-06T23:44:55.081Z,10.03
2022-11-06T23:47:23.868Z,9.44
2022-11-06T23:49:52.141Z,9.00
2022-11-06T23:52:21.032Z,8.65
2022-11-06T23:54:49.410Z,8.79
2022-11-06T23:57:17.898Z,10.35
2022-11-06T23:59:47.398Z,11.65
